logo
Search for airport 
image banner adimage banner adimage banner ad
image banner ad

VT60 - Hulett Landing Strip

Located in West Pawlett, United States

ICAO - VT60, IATA -

Data provided by Airmate  

General information

Coordinates: N43°19'48" W73°14'33"
Elevation is 720 feet MSL.
Magnetic variation is -15° East
View others Airports in Vermont

Operational data

Special qualification required
Current time UTC:
Current local time:
Weather at : KGFL - Floyd Bennett Meml ( 30 km )
TAF: KGFL 220522Z 2206/2306 VRB03KT P6SM BKN080 FM220800 00000KT 4SM BR SCT002 TEMPO 2208/2211 1/2SM FG VV002 FM221300 19008KT P6SM SKC FM221700 20010KT P6SM SCT060 FM230100 20005KT P6SM VCSH BKN050 BKN100 AMD NOT SKED
View NOTAMs / SUP AIP / TFR affecting this airport [VIEW]
Communications frequencies: [VIEW]

Runways:

RWY identifierQFULength (ft)Width (ft)SurfaceLDA (ft)
02112575GRASS
20112575GRASS

Airport contact information

Address: West Pawlett United States

Satellite view of VT60